sensor_id;sensor_type;location;lat;lon;timestamp;P1;durP1;ratioP1;P2;durP2;ratioP2
28988;SDS011;16089;59.952;10.818;2023-12-20T00:01:22;3.92;;;1.20;;
28988;SDS011;16089;59.952;10.818;2023-12-20T00:03:48;5.05;;;1.30;;
28988;SDS011;16089;59.952;10.818;2023-12-20T00:06:15;8.98;;;1.85;;
28988;SDS011;16089;59.952;10.818;2023-12-20T00:08:41;11.77;;;1.65;;
28988;SDS011;16089;59.952;10.818;2023-12-20T00:11:09;6.05;;;1.20;;
28988;SDS011;16089;59.952;10.818;2023-12-20T00:13:35;9.10;;;1.70;;
28988;SDS011;16089;59.952;10.818;2023-12-20T00:16:01;5.93;;;1.45;;
28988;SDS011;16089;59.952;10.818;2023-12-20T00:18:29;8.27;;;1.95;;
28988;SDS011;16089;59.952;10.818;2023-12-20T00:20:56;7.47;;;1.77;;
28988;SDS011;16089;59.952;10.818;2023-12-20T00:23:22;11.50;;;2.20;;
28988;SDS011;16089;59.952;10.818;2023-12-20T00:25:49;9.52;;;1.55;;
28988;SDS011;16089;59.952;10.818;2023-12-20T00:28:17;11.02;;;2.22;;
28988;SDS011;16089;59.952;10.818;2023-12-20T00:30:44;8.98;;;1.50;;
28988;SDS011;16089;59.952;10.818;2023-12-20T00:33:10;8.38;;;1.83;;
28988;SDS011;16089;59.952;10.818;2023-12-20T00:35:38;9.55;;;1.50;;
28988;SDS011;16089;59.952;10.818;2023-12-20T00:38:04;13.10;;;1.70;;
28988;SDS011;16089;59.952;10.818;2023-12-20T00:40:32;7.22;;;1.60;;
28988;SDS011;16089;59.952;10.818;2023-12-20T00:42:58;8.45;;;1.77;;
28988;SDS011;16089;59.952;10.818;2023-12-20T00:45:24;7.47;;;1.75;;
28988;SDS011;16089;59.952;10.818;2023-12-20T00:47:51;8.85;;;1.40;;
28988;SDS011;16089;59.952;10.818;2023-12-20T00:50:17;12.20;;;2.13;;
28988;SDS011;16089;59.952;10.818;2023-12-20T00:52:45;9.15;;;1.75;;
28988;SDS011;16089;59.952;10.818;2023-12-20T00:55:11;8.05;;;1.83;;
28988;SDS011;16089;59.952;10.818;2023-12-20T00:57:38;11.93;;;2.30;;
28988;SDS011;16089;59.952;10.818;2023-12-20T01:00:05;8.75;;;1.58;;
28988;SDS011;16089;59.952;10.818;2023-12-20T01:02:31;9.88;;;1.98;;
28988;SDS011;16089;59.952;10.818;2023-12-20T01:04:58;9.52;;;2.63;;
28988;SDS011;16089;59.952;10.818;2023-12-20T01:07:24;11.57;;;2.13;;
28988;SDS011;16089;59.952;10.818;2023-12-20T01:09:52;15.57;;;2.20;;
28988;SDS011;16089;59.952;10.818;2023-12-20T01:12:18;9.90;;;1.92;;
28988;SDS011;16089;59.952;10.818;2023-12-20T01:14:45;6.57;;;2.05;;
28988;SDS011;16089;59.952;10.818;2023-12-20T01:17:11;9.20;;;2.00;;
28988;SDS011;16089;59.952;10.818;2023-12-20T01:19:38;12.10;;;2.00;;
28988;SDS011;16089;59.952;10.818;2023-12-20T01:22:04;10.40;;;2.15;;
28988;SDS011;16089;59.952;10.818;2023-12-20T01:24:30;9.75;;;2.45;;
28988;SDS011;16089;59.952;10.818;2023-12-20T01:26:59;7.10;;;1.95;;
28988;SDS011;16089;59.952;10.818;2023-12-20T01:29:25;9.43;;;2.65;;
28988;SDS011;16089;59.952;10.818;2023-12-20T01:31:51;9.50;;;2.10;;
28988;SDS011;16089;59.952;10.818;2023-12-20T01:34:18;10.60;;;2.55;;
28988;SDS011;16089;59.952;10.818;2023-12-20T01:36:44;8.70;;;1.98;;
28988;SDS011;16089;59.952;10.818;2023-12-20T01:39:11;7.10;;;2.13;;
28988;SDS011;16089;59.952;10.818;2023-12-20T01:41:37;11.45;;;2.28;;
28988;SDS011;16089;59.952;10.818;2023-12-20T01:44:05;10.40;;;1.90;;
28988;SDS011;16089;59.952;10.818;2023-12-20T01:46:31;9.95;;;2.28;;
28988;SDS011;16089;59.952;10.818;2023-12-20T01:48:57;9.10;;;2.08;;
28988;SDS011;16089;59.952;10.818;2023-12-20T01:51:24;7.32;;;2.20;;
28988;SDS011;16089;59.952;10.818;2023-12-20T01:53:52;12.48;;;2.28;;
28988;SDS011;16089;59.952;10.818;2023-12-20T01:56:18;9.90;;;2.13;;
28988;SDS011;16089;59.952;10.818;2023-12-20T01:58:46;12.15;;;2.42;;
28988;SDS011;16089;59.952;10.818;2023-12-20T02:01:14;12.52;;;2.15;;
28988;SDS011;16089;59.952;10.818;2023-12-20T02:03:41;12.50;;;2.20;;
28988;SDS011;16089;59.952;10.818;2023-12-20T02:06:08;8.52;;;2.10;;
28988;SDS011;16089;59.952;10.818;2023-12-20T02:08:34;10.05;;;1.88;;
28988;SDS011;16089;59.952;10.818;2023-12-20T02:11:01;11.70;;;2.10;;
28988;SDS011;16089;59.952;10.818;2023-12-20T02:13:27;12.35;;;2.20;;
28988;SDS011;16089;59.952;10.818;2023-12-20T02:15:54;11.05;;;2.45;;
28988;SDS011;16089;59.952;10.818;2023-12-20T02:18:22;9.90;;;2.30;;
28988;SDS011;16089;59.952;10.818;2023-12-20T02:20:48;10.13;;;2.25;;
28988;SDS011;16089;59.952;10.818;2023-12-20T02:23:16;7.80;;;2.00;;
28988;SDS011;16089;59.952;10.818;2023-12-20T02:25:42;12.63;;;2.22;;
28988;SDS011;16089;59.952;10.818;2023-12-20T02:28:09;9.63;;;2.10;;
28988;SDS011;16089;59.952;10.818;2023-12-20T02:30:35;11.75;;;2.20;;
28988;SDS011;16089;59.952;10.818;2023-12-20T02:33:01;12.35;;;2.30;;
28988;SDS011;16089;59.952;10.818;2023-12-20T02:35:29;13.50;;;2.08;;
28988;SDS011;16089;59.952;10.818;2023-12-20T02:37:55;9.75;;;2.00;;
28988;SDS011;16089;59.952;10.818;2023-12-20T02:40:23;6.65;;;1.90;;
28988;SDS011;16089;59.952;10.818;2023-12-20T02:42:50;11.80;;;2.28;;
28988;SDS011;16089;59.952;10.818;2023-12-20T02:45:16;7.20;;;1.80;;
28988;SDS011;16089;59.952;10.818;2023-12-20T02:47:42;8.73;;;1.90;;
28988;SDS011;16089;59.952;10.818;2023-12-20T02:50:09;6.75;;;1.80;;
28988;SDS011;16089;59.952;10.818;2023-12-20T02:52:35;7.85;;;1.88;;
28988;SDS011;16089;59.952;10.818;2023-12-20T02:55:02;12.80;;;2.70;;
28988;SDS011;16089;59.952;10.818;2023-12-20T02:57:29;9.00;;;1.95;;
28988;SDS011;16089;59.952;10.818;2023-12-20T02:59:57;11.07;;;1.80;;
28988;SDS011;16089;59.952;10.818;2023-12-20T03:02:23;11.13;;;1.98;;
28988;SDS011;16089;59.952;10.818;2023-12-20T03:04:49;12.10;;;2.20;;
28988;SDS011;16089;59.952;10.818;2023-12-20T03:07:16;9.43;;;1.90;;
28988;SDS011;16089;59.952;10.818;2023-12-20T03:09:42;10.90;;;2.10;;
28988;SDS011;16089;59.952;10.818;2023-12-20T03:12:09;7.07;;;1.70;;
28988;SDS011;16089;59.952;10.818;2023-12-20T03:14:36;7.85;;;2.00;;
28988;SDS011;16089;59.952;10.818;2023-12-20T03:17:03;13.07;;;2.58;;
28988;SDS011;16089;59.952;10.818;2023-12-20T03:19:29;7.88;;;1.80;;
28988;SDS011;16089;59.952;10.818;2023-12-20T03:21:55;11.75;;;2.40;;
28988;SDS011;16089;59.952;10.818;2023-12-20T03:24:22;10.20;;;2.00;;
28988;SDS011;16089;59.952;10.818;2023-12-20T03:26:48;9.68;;;2.00;;
28988;SDS011;16089;59.952;10.818;2023-12-20T03:29:14;6.75;;;2.13;;
28988;SDS011;16089;59.952;10.818;2023-12-20T03:31:42;9.65;;;2.08;;
28988;SDS011;16089;59.952;10.818;2023-12-20T03:34:09;6.18;;;1.63;;
28988;SDS011;16089;59.952;10.818;2023-12-20T03:36:35;5.22;;;1.60;;
28988;SDS011;16089;59.952;10.818;2023-12-20T03:39:02;10.35;;;2.00;;
28988;SDS011;16089;59.952;10.818;2023-12-20T03:41:28;9.50;;;2.40;;
28988;SDS011;16089;59.952;10.818;2023-12-20T03:43:54;10.90;;;2.00;;
28988;SDS011;16089;59.952;10.818;2023-12-20T03:46:21;5.93;;;1.80;;
28988;SDS011;16089;59.952;10.818;2023-12-20T03:48:49;8.18;;;1.75;;
28988;SDS011;16089;59.952;10.818;2023-12-20T03:51:15;6.75;;;1.83;;
28988;SDS011;16089;59.952;10.818;2023-12-20T03:53:42;12.38;;;2.08;;
28988;SDS011;16089;59.952;10.818;2023-12-20T03:56:08;7.50;;;1.95;;
28988;SDS011;16089;59.952;10.818;2023-12-20T03:58:34;9.38;;;2.33;;
28988;SDS011;16089;59.952;10.818;2023-12-20T04:01:01;8.55;;;1.83;;
28988;SDS011;16089;59.952;10.818;2023-12-20T04:03:27;8.57;;;1.90;;
28988;SDS011;16089;59.952;10.818;2023-12-20T04:05:55;9.73;;;2.53;;
28988;SDS011;16089;59.952;10.818;2023-12-20T04:08:21;12.82;;;2.47;;
28988;SDS011;16089;59.952;10.818;2023-12-20T04:10:48;10.02;;;1.80;;
28988;SDS011;16089;59.952;10.818;2023-12-20T04:13:14;6.75;;;1.65;;
28988;SDS011;16089;59.952;10.818;2023-12-20T04:15:41;11.98;;;2.15;;
28988;SDS011;16089;59.952;10.818;2023-12-20T04:18:07;9.63;;;2.00;;
28988;SDS011;16089;59.952;10.818;2023-12-20T04:20:34;9.15;;;2.40;;
28988;SDS011;16089;59.952;10.818;2023-12-20T04:23:02;11.30;;;2.20;;
28988;SDS011;16089;59.952;10.818;2023-12-20T04:25:28;10.45;;;2.40;;
28988;SDS011;16089;59.952;10.818;2023-12-20T04:27:54;8.68;;;2.25;;
28988;SDS011;16089;59.952;10.818;2023-12-20T04:30:21;12.75;;;2.03;;
28988;SDS011;16089;59.952;10.818;2023-12-20T04:32:47;9.68;;;2.33;;
28988;SDS011;16089;59.952;10.818;2023-12-20T04:35:14;9.45;;;2.13;;
28988;SDS011;16089;59.952;10.818;2023-12-20T04:37:40;8.68;;;1.98;;
28988;SDS011;16089;59.952;10.818;2023-12-20T04:40:08;10.88;;;2.20;;
28988;SDS011;16089;59.952;10.818;2023-12-20T04:42:35;5.15;;;2.08;;
28988;SDS011;16089;59.952;10.818;2023-12-20T04:45:01;12.90;;;2.67;;
28988;SDS011;16089;59.952;10.818;2023-12-20T04:47:28;7.70;;;2.08;;
28988;SDS011;16089;59.952;10.818;2023-12-20T04:49:54;9.45;;;2.00;;
28988;SDS011;16089;59.952;10.818;2023-12-20T04:52:21;10.60;;;2.67;;
28988;SDS011;16089;59.952;10.818;2023-12-20T04:54:48;9.20;;;2.40;;
28988;SDS011;16089;59.952;10.818;2023-12-20T04:57:15;9.93;;;3.15;;
28988;SDS011;16089;59.952;10.818;2023-12-20T04:59:42;12.35;;;2.63;;
28988;SDS011;16089;59.952;10.818;2023-12-20T05:02:08;9.10;;;2.35;;
28988;SDS011;16089;59.952;10.818;2023-12-20T05:04:34;13.18;;;2.20;;
28988;SDS011;16089;59.952;10.818;2023-12-20T05:07:01;13.02;;;2.65;;
28988;SDS011;16089;59.952;10.818;2023-12-20T05:09:29;9.82;;;3.45;;
28988;SDS011;16089;59.952;10.818;2023-12-20T05:11:56;15.05;;;3.50;;
28988;SDS011;16089;59.952;10.818;2023-12-20T05:14:24;14.40;;;3.20;;
28988;SDS011;16089;59.952;10.818;2023-12-20T05:16:51;12.43;;;3.90;;
28988;SDS011;16089;59.952;10.818;2023-12-20T05:19:17;13.18;;;3.90;;
28988;SDS011;16089;59.952;10.818;2023-12-20T05:21:44;15.48;;;4.32;;
28988;SDS011;16089;59.952;10.818;2023-12-20T05:24:10;13.10;;;3.80;;
28988;SDS011;16089;59.952;10.818;2023-12-20T05:26:36;17.20;;;4.43;;
28988;SDS011;16089;59.952;10.818;2023-12-20T05:29:03;15.90;;;4.43;;
28988;SDS011;16089;59.952;10.818;2023-12-20T05:31:30;15.25;;;4.78;;
28988;SDS011;16089;59.952;10.818;2023-12-20T05:33:57;15.43;;;4.60;;
28988;SDS011;16089;59.952;10.818;2023-12-20T05:36:23;15.00;;;4.85;;
28988;SDS011;16089;59.952;10.818;2023-12-20T05:38:50;17.77;;;5.53;;
28988;SDS011;16089;59.952;10.818;2023-12-20T05:41:16;13.30;;;4.78;;
28988;SDS011;16089;59.952;10.818;2023-12-20T05:43:43;17.20;;;4.90;;
28988;SDS011;16089;59.952;10.818;2023-12-20T05:46:09;10.82;;;4.38;;
28988;SDS011;16089;59.952;10.818;2023-12-20T05:48:37;13.38;;;4.88;;
28988;SDS011;16089;59.952;10.818;2023-12-20T05:51:04;16.45;;;5.45;;
28988;SDS011;16089;59.952;10.818;2023-12-20T05:53:30;15.68;;;6.32;;
28988;SDS011;16089;59.952;10.818;2023-12-20T05:55:56;12.52;;;5.05;;
28988;SDS011;16089;59.952;10.818;2023-12-20T05:58:23;16.65;;;5.97;;
28988;SDS011;16089;59.952;10.818;2023-12-20T06:00:49;18.70;;;5.25;;
28988;SDS011;16089;59.952;10.818;2023-12-20T06:03:16;13.45;;;5.15;;
28988;SDS011;16089;59.952;10.818;2023-12-20T06:05:43;13.20;;;4.55;;
28988;SDS011;16089;59.952;10.818;2023-12-20T06:08:10;18.05;;;5.50;;
28988;SDS011;16089;59.952;10.818;2023-12-20T06:10:36;14.02;;;4.50;;
28988;SDS011;16089;59.952;10.818;2023-12-20T06:13:03;14.50;;;4.68;;
28988;SDS011;16089;59.952;10.818;2023-12-20T06:15:31;16.30;;;4.75;;
28988;SDS011;16089;59.952;10.818;2023-12-20T06:17:58;15.30;;;4.50;;
28988;SDS011;16089;59.952;10.818;2023-12-20T06:20:24;15.68;;;4.90;;
28988;SDS011;16089;59.952;10.818;2023-12-20T06:22:52;12.38;;;4.53;;
28988;SDS011;16089;59.952;10.818;2023-12-20T06:25:19;13.43;;;4.70;;
28988;SDS011;16089;59.952;10.818;2023-12-20T06:27:45;11.77;;;4.43;;
28988;SDS011;16089;59.952;10.818;2023-12-20T06:30:11;8.43;;;3.75;;
28988;SDS011;16089;59.952;10.818;2023-12-20T06:32:38;12.07;;;4.30;;
28988;SDS011;16089;59.952;10.818;2023-12-20T06:35:05;11.52;;;3.90;;
28988;SDS011;16089;59.952;10.818;2023-12-20T06:37:31;11.13;;;3.80;;
28988;SDS011;16089;59.952;10.818;2023-12-20T06:39:59;8.18;;;3.20;;
28988;SDS011;16089;59.952;10.818;2023-12-20T06:42:25;13.15;;;4.47;;
28988;SDS011;16089;59.952;10.818;2023-12-20T06:44:52;10.48;;;3.30;;
28988;SDS011;16089;59.952;10.818;2023-12-20T06:47:18;8.18;;;3.10;;
28988;SDS011;16089;59.952;10.818;2023-12-20T06:49:44;6.47;;;2.90;;
28988;SDS011;16089;59.952;10.818;2023-12-20T06:52:11;6.85;;;2.83;;
28988;SDS011;16089;59.952;10.818;2023-12-20T06:54:37;8.18;;;2.95;;
28988;SDS011;16089;59.952;10.818;2023-12-20T06:57:05;7.78;;;3.05;;
28988;SDS011;16089;59.952;10.818;2023-12-20T06:59:31;7.47;;;3.00;;
28988;SDS011;16089;59.952;10.818;2023-12-20T07:01:58;8.90;;;2.75;;
28988;SDS011;16089;59.952;10.818;2023-12-20T07:04:24;7.57;;;3.05;;
28988;SDS011;16089;59.952;10.818;2023-12-20T07:06:50;7.50;;;2.50;;
28988;SDS011;16089;59.952;10.818;2023-12-20T07:09:19;5.53;;;2.50;;
28988;SDS011;16089;59.952;10.818;2023-12-20T07:11:45;6.60;;;2.78;;
28988;SDS011;16089;59.952;10.818;2023-12-20T07:14:13;5.70;;;2.10;;
28988;SDS011;16089;59.952;10.818;2023-12-20T07:16:39;4.90;;;2.30;;
28988;SDS011;16089;59.952;10.818;2023-12-20T07:19:06;5.10;;;2.00;;
28988;SDS011;16089;59.952;10.818;2023-12-20T07:21:32;8.82;;;2.58;;
28988;SDS011;16089;59.952;10.818;2023-12-20T07:23:59;5.88;;;2.17;;
28988;SDS011;16089;59.952;10.818;2023-12-20T07:26:25;5.47;;;2.35;;
28988;SDS011;16089;59.952;10.818;2023-12-20T07:28:51;6.50;;;2.20;;
28988;SDS011;16089;59.952;10.818;2023-12-20T07:31:19;5.00;;;2.50;;
28988;SDS011;16089;59.952;10.818;2023-12-20T07:33:45;7.03;;;2.42;;
28988;SDS011;16089;59.952;10.818;2023-12-20T07:36:12;6.32;;;2.38;;
28988;SDS011;16089;59.952;10.818;2023-12-20T07:38:38;9.13;;;2.45;;
28988;SDS011;16089;59.952;10.818;2023-12-20T07:41:08;5.43;;;2.40;;
28988;SDS011;16089;59.952;10.818;2023-12-20T07:43:35;6.75;;;2.30;;
28988;SDS011;16089;59.952;10.818;2023-12-20T07:46:04;6.70;;;2.83;;
28988;SDS011;16089;59.952;10.818;2023-12-20T07:48:31;4.80;;;2.25;;
28988;SDS011;16089;59.952;10.818;2023-12-20T07:50:58;6.13;;;2.33;;
28988;SDS011;16089;59.952;10.818;2023-12-20T07:53:24;6.18;;;2.17;;
28988;SDS011;16089;59.952;10.818;2023-12-20T07:55:51;7.53;;;2.33;;
28988;SDS011;16089;59.952;10.818;2023-12-20T07:58:18;8.80;;;2.88;;
28988;SDS011;16089;59.952;10.818;2023-12-20T08:00:44;7.60;;;2.67;;
28988;SDS011;16089;59.952;10.818;2023-12-20T08:03:10;6.88;;;2.53;;
28988;SDS011;16089;59.952;10.818;2023-12-20T08:05:38;11.50;;;3.15;;
28988;SDS011;16089;59.952;10.818;2023-12-20T08:08:05;12.70;;;4.38;;
28988;SDS011;16089;59.952;10.818;2023-12-20T08:10:32;9.52;;;4.28;;
28988;SDS011;16089;59.952;10.818;2023-12-20T08:12:58;15.80;;;5.05;;
28988;SDS011;16089;59.952;10.818;2023-12-20T08:15:25;14.23;;;4.97;;
28988;SDS011;16089;59.952;10.818;2023-12-20T08:17:51;13.68;;;5.28;;
28988;SDS011;16089;59.952;10.818;2023-12-20T08:20:18;13.75;;;5.70;;
28988;SDS011;16089;59.952;10.818;2023-12-20T08:22:46;11.88;;;5.10;;
28988;SDS011;16089;59.952;10.818;2023-12-20T08:25:12;12.38;;;5.68;;
28988;SDS011;16089;59.952;10.818;2023-12-20T08:27:40;15.43;;;6.43;;
28988;SDS011;16089;59.952;10.818;2023-12-20T08:30:08;22.02;;;7.80;;
28988;SDS011;16089;59.952;10.818;2023-12-20T08:32:34;16.58;;;7.28;;
28988;SDS011;16089;59.952;10.818;2023-12-20T08:35:01;22.58;;;8.15;;
28988;SDS011;16089;59.952;10.818;2023-12-20T08:37:27;19.58;;;8.45;;
28988;SDS011;16089;59.952;10.818;2023-12-20T08:39:56;18.40;;;7.80;;
28988;SDS011;16089;59.952;10.818;2023-12-20T08:42:22;18.40;;;7.22;;
28988;SDS011;16089;59.952;10.818;2023-12-20T08:44:49;25.20;;;8.55;;
28988;SDS011;16089;59.952;10.818;2023-12-20T08:47:16;17.25;;;7.40;;
28988;SDS011;16089;59.952;10.818;2023-12-20T08:49:42;22.17;;;8.30;;
28988;SDS011;16089;59.952;10.818;2023-12-20T08:52:09;18.58;;;7.78;;
28988;SDS011;16089;59.952;10.818;2023-12-20T08:54:35;18.55;;;7.63;;
28988;SDS011;16089;59.952;10.818;2023-12-20T08:57:03;20.40;;;8.10;;
28988;SDS011;16089;59.952;10.818;2023-12-20T08:59:31;18.33;;;7.10;;
28988;SDS011;16089;59.952;10.818;2023-12-20T09:01:58;19.80;;;8.75;;
28988;SDS011;16089;59.952;10.818;2023-12-20T09:04:24;21.83;;;9.25;;
28988;SDS011;16089;59.952;10.818;2023-12-20T09:06:51;16.67;;;7.38;;
28988;SDS011;16089;59.952;10.818;2023-12-20T09:09:17;17.70;;;7.40;;
28988;SDS011;16089;59.952;10.818;2023-12-20T09:11:44;20.30;;;9.02;;
28988;SDS011;16089;59.952;10.818;2023-12-20T09:14:12;26.85;;;9.95;;
28988;SDS011;16089;59.952;10.818;2023-12-20T09:16:39;22.40;;;10.70;;
28988;SDS011;16089;59.952;10.818;2023-12-20T09:19:05;19.35;;;9.80;;
28988;SDS011;16089;59.952;10.818;2023-12-20T09:21:31;19.33;;;8.98;;
28988;SDS011;16089;59.952;10.818;2023-12-20T09:23:58;15.18;;;6.45;;
28988;SDS011;16089;59.952;10.818;2023-12-20T09:26:24;8.35;;;3.45;;
28988;SDS011;16089;59.952;10.818;2023-12-20T09:28:51;9.77;;;3.05;;
28988;SDS011;16089;59.952;10.818;2023-12-20T09:31:19;6.78;;;2.70;;
28988;SDS011;16089;59.952;10.818;2023-12-20T09:33:45;7.15;;;2.45;;
28988;SDS011;16089;59.952;10.818;2023-12-20T09:36:11;5.82;;;2.65;;
28988;SDS011;16089;59.952;10.818;2023-12-20T09:38:38;4.93;;;2.40;;
28988;SDS011;16089;59.952;10.818;2023-12-20T09:41:04;7.22;;;2.90;;
28988;SDS011;16089;59.952;10.818;2023-12-20T09:43:31;8.55;;;2.67;;
28988;SDS011;16089;59.952;10.818;2023-12-20T09:46:00;7.63;;;2.60;;
28988;SDS011;16089;59.952;10.818;2023-12-20T09:48:28;10.50;;;2.53;;
28988;SDS011;16089;59.952;10.818;2023-12-20T09:53:21;9.82;;;2.92;;
28988;SDS011;16089;59.952;10.818;2023-12-20T09:55:54;6.82;;;2.95;;
28988;SDS011;16089;59.952;10.818;2023-12-20T09:58:21;6.93;;;2.67;;
28988;SDS011;16089;59.952;10.818;2023-12-20T10:00:48;10.55;;;3.58;;
28988;SDS011;16089;59.952;10.818;2023-12-20T10:03:14;9.02;;;2.80;;
28988;SDS011;16089;59.952;10.818;2023-12-20T10:05:43;7.40;;;2.78;;
28988;SDS011;16089;59.952;10.818;2023-12-20T10:08:10;7.05;;;3.17;;
28988;SDS011;16089;59.952;10.818;2023-12-20T10:10:36;10.02;;;3.20;;
28988;SDS011;16089;59.952;10.818;2023-12-20T10:13:04;5.38;;;2.92;;
28988;SDS011;16089;59.952;10.818;2023-12-20T10:15:34;8.05;;;3.40;;
28988;SDS011;16089;59.952;10.818;2023-12-20T10:18:00;8.77;;;2.83;;
28988;SDS011;16089;59.952;10.818;2023-12-20T10:20:27;8.40;;;3.00;;
28988;SDS011;16089;59.952;10.818;2023-12-20T10:22:56;7.60;;;3.33;;
28988;SDS011;16089;59.952;10.818;2023-12-20T10:25:23;7.35;;;2.85;;
28988;SDS011;16089;59.952;10.818;2023-12-20T10:27:50;7.22;;;2.97;;
28988;SDS011;16089;59.952;10.818;2023-12-20T10:30:16;8.05;;;3.08;;
28988;SDS011;16089;59.952;10.818;2023-12-20T10:32:43;7.35;;;2.55;;
28988;SDS011;16089;59.952;10.818;2023-12-20T10:35:09;6.53;;;2.25;;
28988;SDS011;16089;59.952;10.818;2023-12-20T10:37:36;5.43;;;2.20;;
28988;SDS011;16089;59.952;10.818;2023-12-20T10:40:05;7.20;;;2.42;;
28988;SDS011;16089;59.952;10.818;2023-12-20T10:42:32;8.27;;;2.70;;
28988;SDS011;16089;59.952;10.818;2023-12-20T10:44:59;6.03;;;2.67;;
28988;SDS011;16089;59.952;10.818;2023-12-20T10:47:25;6.97;;;2.50;;
28988;SDS011;16089;59.952;10.818;2023-12-20T10:49:52;5.70;;;2.50;;
28988;SDS011;16089;59.952;10.818;2023-12-20T10:52:18;5.85;;;2.50;;
28988;SDS011;16089;59.952;10.818;2023-12-20T10:54:45;8.63;;;2.30;;
28988;SDS011;16089;59.952;10.818;2023-12-20T10:57:13;5.88;;;2.65;;
28988;SDS011;16089;59.952;10.818;2023-12-20T10:59:39;12.00;;;5.15;;
28988;SDS011;16089;59.952;10.818;2023-12-20T11:02:07;17.83;;;7.75;;
28988;SDS011;16089;59.952;10.818;2023-12-20T11:04:36;26.23;;;8.40;;
28988;SDS011;16089;59.952;10.818;2023-12-20T11:07:07;24.40;;;8.45;;
28988;SDS011;16089;59.952;10.818;2023-12-20T11:09:35;20.17;;;8.45;;
28988;SDS011;16089;59.952;10.818;2023-12-20T11:12:03;25.08;;;8.73;;
28988;SDS011;16089;59.952;10.818;2023-12-20T11:14:41;23.00;;;8.32;;
28988;SDS011;16089;59.952;10.818;2023-12-20T11:17:09;20.60;;;7.63;;
28988;SDS011;16089;59.952;10.818;2023-12-20T11:19:36;17.52;;;6.93;;
28988;SDS011;16089;59.952;10.818;2023-12-20T11:22:03;15.40;;;6.15;;
28988;SDS011;16089;59.952;10.818;2023-12-20T11:24:30;12.68;;;5.13;;
28988;SDS011;16089;59.952;10.818;2023-12-20T11:26:57;14.98;;;5.20;;
28988;SDS011;16089;59.952;10.818;2023-12-20T11:29:33;12.75;;;5.38;;
28988;SDS011;16089;59.952;10.818;2023-12-20T11:32:02;15.80;;;4.75;;
28988;SDS011;16089;59.952;10.818;2023-12-20T11:34:31;8.90;;;3.70;;
28988;SDS011;16089;59.952;10.818;2023-12-20T11:36:58;5.65;;;2.17;;
28988;SDS011;16089;59.952;10.818;2023-12-20T11:39:25;6.90;;;1.90;;
28988;SDS011;16089;59.952;10.818;2023-12-20T11:41:53;6.05;;;1.85;;
28988;SDS011;16089;59.952;10.818;2023-12-20T11:44:20;5.28;;;2.00;;
28988;SDS011;16089;59.952;10.818;2023-12-20T11:46:46;5.15;;;2.35;;
28988;SDS011;16089;59.952;10.818;2023-12-20T11:49:14;12.52;;;3.33;;
28988;SDS011;16089;59.952;10.818;2023-12-20T11:51:40;10.52;;;3.45;;
28988;SDS011;16089;59.952;10.818;2023-12-20T11:54:07;9.95;;;4.15;;
28988;SDS011;16089;59.952;10.818;2023-12-20T11:56:34;8.27;;;3.60;;
28988;SDS011;16089;59.952;10.818;2023-12-20T11:59:01;8.13;;;3.95;;
28988;SDS011;16089;59.952;10.818;2023-12-20T12:01:28;13.15;;;4.13;;
28988;SDS011;16089;59.952;10.818;2023-12-20T12:04:02;10.10;;;3.78;;
28988;SDS011;16089;59.952;10.818;2023-12-20T12:06:29;7.93;;;3.80;;
28988;SDS011;16089;59.952;10.818;2023-12-20T12:08:56;8.35;;;3.53;;
28988;SDS011;16089;59.952;10.818;2023-12-20T12:11:22;9.80;;;3.67;;
28988;SDS011;16089;59.952;10.818;2023-12-20T12:13:49;7.15;;;3.15;;
28988;SDS011;16089;59.952;10.818;2023-12-20T12:16:16;8.75;;;3.15;;
28988;SDS011;16089;59.952;10.818;2023-12-20T12:18:43;9.27;;;3.17;;
28988;SDS011;16089;59.952;10.818;2023-12-20T12:21:09;8.13;;;2.45;;
28988;SDS011;16089;59.952;10.818;2023-12-20T12:23:37;7.90;;;2.15;;
28988;SDS011;16089;59.952;10.818;2023-12-20T12:26:03;5.07;;;2.22;;
28988;SDS011;16089;59.952;10.818;2023-12-20T12:28:30;8.43;;;3.00;;
28988;SDS011;16089;59.952;10.818;2023-12-20T12:30:57;4.55;;;1.60;;
28988;SDS011;16089;59.952;10.818;2023-12-20T12:33:24;7.45;;;3.13;;
28988;SDS011;16089;59.952;10.818;2023-12-20T12:35:51;9.70;;;3.17;;
28988;SDS011;16089;59.952;10.818;2023-12-20T12:38:19;5.55;;;2.10;;
28988;SDS011;16089;59.952;10.818;2023-12-20T12:40:47;6.85;;;2.55;;
28988;SDS011;16089;59.952;10.818;2023-12-20T12:43:13;4.30;;;1.77;;
28988;SDS011;16089;59.952;10.818;2023-12-20T12:45:40;4.45;;;1.60;;
28988;SDS011;16089;59.952;10.818;2023-12-20T12:48:07;8.05;;;2.63;;
28988;SDS011;16089;59.952;10.818;2023-12-20T12:50:33;9.23;;;2.60;;
28988;SDS011;16089;59.952;10.818;2023-12-20T12:52:59;3.40;;;1.58;;
28988;SDS011;16089;59.952;10.818;2023-12-20T12:55:27;3.35;;;0.98;;
28988;SDS011;16089;59.952;10.818;2023-12-20T12:57:56;2.05;;;0.93;;
28988;SDS011;16089;59.952;10.818;2023-12-20T13:00:22;2.92;;;0.75;;
28988;SDS011;16089;59.952;10.818;2023-12-20T13:02:50;3.10;;;0.90;;
28988;SDS011;16089;59.952;10.818;2023-12-20T13:05:16;2.03;;;0.70;;
28988;SDS011;16089;59.952;10.818;2023-12-20T13:07:43;1.25;;;0.68;;
28988;SDS011;16089;59.952;10.818;2023-12-20T13:10:10;1.00;;;0.40;;
28988;SDS011;16089;59.952;10.818;2023-12-20T13:12:36;2.60;;;0.65;;
28988;SDS011;16089;59.952;10.818;2023-12-20T13:15:04;2.53;;;0.70;;
28988;SDS011;16089;59.952;10.818;2023-12-20T13:17:31;1.20;;;0.70;;
28988;SDS011;16089;59.952;10.818;2023-12-20T13:19:57;1.95;;;0.57;;
28988;SDS011;16089;59.952;10.818;2023-12-20T13:22:24;1.42;;;0.50;;
28988;SDS011;16089;59.952;10.818;2023-12-20T13:24:51;1.67;;;0.60;;
28988;SDS011;16089;59.952;10.818;2023-12-20T13:27:17;1.77;;;0.55;;
28988;SDS011;16089;59.952;10.818;2023-12-20T13:29:44;1.52;;;0.60;;
28988;SDS011;16089;59.952;10.818;2023-12-20T13:32:11;1.60;;;0.73;;
28988;SDS011;16089;59.952;10.818;2023-12-20T13:34:38;1.52;;;0.70;;
28988;SDS011;16089;59.952;10.818;2023-12-20T13:37:04;2.55;;;0.60;;
28988;SDS011;16089;59.952;10.818;2023-12-20T13:39:30;3.35;;;0.88;;
28988;SDS011;16089;59.952;10.818;2023-12-20T13:41:58;3.67;;;0.60;;
28988;SDS011;16089;59.952;10.818;2023-12-20T13:44:24;3.80;;;0.80;;
28988;SDS011;16089;59.952;10.818;2023-12-20T13:46:50;1.52;;;0.70;;
28988;SDS011;16089;59.952;10.818;2023-12-20T13:49:18;3.63;;;0.98;;
28988;SDS011;16089;59.952;10.818;2023-12-20T13:51:45;3.83;;;0.88;;
28988;SDS011;16089;59.952;10.818;2023-12-20T13:54:12;1.92;;;0.75;;
28988;SDS011;16089;59.952;10.818;2023-12-20T13:56:39;3.92;;;1.10;;
28988;SDS011;16089;59.952;10.818;2023-12-20T13:59:04;2.47;;;1.20;;
28988;SDS011;16089;59.952;10.818;2023-12-20T14:01:30;1.70;;;0.70;;
28988;SDS011;16089;59.952;10.818;2023-12-20T14:03:57;1.90;;;0.65;;
28988;SDS011;16089;59.952;10.818;2023-12-20T14:06:26;1.58;;;0.75;;
28988;SDS011;16089;59.952;10.818;2023-12-20T14:08:53;3.25;;;0.80;;
28988;SDS011;16089;59.952;10.818;2023-12-20T14:11:19;3.38;;;0.93;;
28988;SDS011;16089;59.952;10.818;2023-12-20T14:13:45;3.95;;;1.17;;
28988;SDS011;16089;59.952;10.818;2023-12-20T14:16:12;1.85;;;0.70;;
28988;SDS011;16089;59.952;10.818;2023-12-20T14:18:39;4.57;;;0.90;;
28988;SDS011;16089;59.952;10.818;2023-12-20T14:21:05;2.92;;;1.02;;
28988;SDS011;16089;59.952;10.818;2023-12-20T14:23:33;3.00;;;1.15;;
28988;SDS011;16089;59.952;10.818;2023-12-20T14:26:00;6.20;;;1.52;;
28988;SDS011;16089;59.952;10.818;2023-12-20T14:28:27;4.07;;;1.20;;